Time;durP1;ratioP1;P1;durP2;ratioP2;P2;SDS_P1;SDS_P2;PMS_P1;PMS_P2;Temp;Humidity;BMP_temperature;BMP_pressure;BME280_temperature;BME280_humidity;BME280_pressure;Samples;Min_cycle;Max_cycle;Signal;HPM_P1;HPM_P2
2023/08/10 00:00:24;;;;;;;1.58;0.90;;;23.40;48.80;;;;;;5087244;28;20024;-68
2023/08/10 00:02:51;;;;;;;1.45;0.60;;;23.40;48.80;;;;;;5094062;28;20032;-68
2023/08/10 00:05:17;;;;;;;1.27;0.70;;;23.40;48.80;;;;;;5088206;28;20079;-68
2023/08/10 00:07:43;;;;;;;0.98;0.70;;;23.40;48.90;;;;;;5073628;28;20434;-67
2023/08/10 00:10:09;;;;;;;1.23;0.57;;;23.40;48.90;;;;;;5080407;28;20023;-69
2023/08/10 00:12:38;;;;;;;1.25;0.70;;;23.40;48.90;;;;;;5093548;28;20072;-69
2023/08/10 00:15:05;;;;;;;1.23;0.77;;;23.40;48.90;;;;;;5090427;28;20107;-68
2023/08/10 00:17:32;;;;;;;2.95;0.70;;;23.30;48.90;;;;;;5093673;28;20055;-67
2023/08/10 00:19:58;;;;;;;1.02;0.60;;;23.30;48.90;;;;;;5093557;28;20032;-69
2023/08/10 00:22:23;;;;;;;1.67;0.90;;;23.30;48.90;;;;;;5092386;28;20024;-66
2023/08/10 00:24:49;;;;;;;2.25;0.85;;;23.30;49.00;;;;;;5036250;28;20164;-68
2023/08/10 00:27:15;;;;;;;1.77;0.75;;;23.30;49.00;;;;;;5067738;28;20028;-69
2023/08/10 00:29:41;;;;;;;1.23;0.85;;;23.30;49.00;;;;;;5043440;28;20028;-68
2023/08/10 00:32:07;;;;;;;1.35;0.80;;;23.30;49.10;;;;;;5055341;28;20040;-66
2023/08/10 00:34:34;;;;;;;1.73;0.85;;;23.30;49.10;;;;;;5067865;28;20098;-68
2023/08/10 00:36:59;;;;;;;1.15;0.60;;;23.30;49.10;;;;;;5044179;28;20424;-67
2023/08/10 00:39:26;;;;;;;2.70;0.75;;;23.30;49.10;;;;;;5067620;28;20035;-66
2023/08/10 00:41:53;;;;;;;1.13;0.70;;;23.30;49.10;;;;;;5070174;28;20058;-66
2023/08/10 00:44:19;;;;;;;2.83;0.95;;;23.30;49.20;;;;;;5057057;28;20401;-68
2023/08/10 00:46:47;;;;;;;0.98;0.70;;;23.30;49.20;;;;;;5038760;28;20045;-68
2023/08/10 00:49:12;;;;;;;2.50;1.00;;;23.30;49.20;;;;;;5061059;28;20420;-68
2023/08/10 00:51:39;;;;;;;1.00;0.60;;;23.30;49.30;;;;;;5056134;28;20040;-67
2023/08/10 00:54:06;;;;;;;1.85;1.05;;;23.30;49.30;;;;;;5052750;28;20036;-68
2023/08/10 00:56:32;;;;;;;1.13;0.57;;;23.20;49.30;;;;;;5036096;28;20021;-66
2023/08/10 00:58:58;;;;;;;1.00;0.65;;;23.20;49.30;;;;;;5059896;28;20104;-69
2023/08/10 01:01:24;;;;;;;1.48;0.75;;;23.30;49.40;;;;;;5042161;28;20166;-67
2023/08/10 01:03:51;;;;;;;1.85;0.70;;;23.20;49.30;;;;;;5046308;28;20047;-68
2023/08/10 01:06:30;;;;;;;1.50;0.80;;;23.20;49.40;;;;;;5045390;28;20029;-67
2023/08/10 01:09:39;;;;;;;1.63;0.75;;;23.20;49.40;;;;;;5066321;28;20090;-69
2023/08/10 01:12:11;;;;;;;2.20;0.93;;;23.20;49.40;;;;;;5052792;28;20102;-69
2023/08/10 01:14:48;;;;;;;2.15;0.90;;;23.20;49.40;;;;;;5059580;28;20052;-67
2023/08/10 01:17:20;;;;;;;1.52;0.70;;;23.20;49.40;;;;;;5079643;28;20024;-67
2023/08/10 01:19:48;;;;;;;1.42;0.60;;;23.20;49.40;;;;;;5065294;28;20035;-69
2023/08/10 01:22:29;;;;;;;1.27;0.60;;;23.20;49.50;;;;;;5022314;28;20089;-68
2023/08/10 01:25:01;;;;;;;1.80;0.80;;;23.20;49.50;;;;;;5062006;28;20112;-67
2023/08/10 01:27:28;;;;;;;0.93;0.70;;;23.20;49.50;;;;;;5064184;28;20155;-68
2023/08/10 01:29:56;;;;;;;0.85;0.60;;;23.20;49.60;;;;;;5039998;28;20033;-66
2023/08/10 01:32:22;;;;;;;1.02;0.60;;;23.20;49.60;;;;;;5066762;28;20033;-69
2023/08/10 01:34:50;;;;;;;1.30;0.60;;;23.20;49.60;;;;;;5059483;28;21744;-66
2023/08/10 01:37:17;;;;;;;1.30;0.75;;;23.20;49.70;;;;;;5063964;28;20437;-68
2023/08/10 01:39:43;;;;;;;1.33;0.68;;;23.20;49.70;;;;;;5048860;28;20025;-67
2023/08/10 01:42:09;;;;;;;3.00;0.75;;;23.20;49.70;;;;;;5042626;28;20485;-68
2023/08/10 01:44:35;;;;;;;1.38;0.52;;;23.20;49.80;;;;;;5050397;28;20445;-69
2023/08/10 01:47:05;;;;;;;1.15;0.47;;;23.20;49.80;;;;;;5067543;28;20157;-67
2023/08/10 01:49:34;;;;;;;1.30;0.73;;;23.20;49.80;;;;;;5043630;28;20024;-69
2023/08/10 01:52:04;;;;;;;1.02;0.43;;;23.10;49.70;;;;;;5070014;28;20412;-68
2023/08/10 01:54:32;;;;;;;1.40;0.50;;;23.10;49.80;;;;;;5042027;28;20067;-66
2023/08/10 01:56:58;;;;;;;1.13;0.70;;;23.20;49.90;;;;;;5072234;28;20036;-67
2023/08/10 01:59:24;;;;;;;0.77;0.60;;;23.10;49.80;;;;;;5060734;28;20032;-69
2023/08/10 02:01:50;;;;;;;1.17;0.60;;;23.10;49.90;;;;;;5071680;28;20050;-67
2023/08/10 02:04:17;;;;;;;0.82;0.68;;;23.10;49.90;;;;;;5054772;28;20374;-67
2023/08/10 02:06:44;;;;;;;2.00;0.73;;;23.10;49.90;;;;;;5068243;28;20157;-68
2023/08/10 02:09:10;;;;;;;1.33;0.70;;;23.10;49.90;;;;;;5052679;28;20107;-68
2023/08/10 02:11:35;;;;;;;1.67;0.80;;;23.10;49.90;;;;;;5068782;28;20032;-67
2023/08/10 02:14:01;;;;;;;0.95;0.50;;;23.10;49.90;;;;;;5073486;28;20082;-70
2023/08/10 02:16:27;;;;;;;0.98;0.60;;;23.10;50.00;;;;;;5073686;28;20392;-69
2023/08/10 02:18:53;;;;;;;1.17;0.63;;;23.10;50.00;;;;;;5073579;28;20039;-69
2023/08/10 02:21:23;;;;;;;2.00;0.88;;;23.10;50.00;;;;;;5091260;28;20024;-68
2023/08/10 02:23:50;;;;;;;0.80;0.60;;;23.10;50.10;;;;;;5051178;28;20344;-68
2023/08/10 02:26:17;;;;;;;1.02;0.60;;;23.10;50.10;;;;;;5050063;28;20031;-67
2023/08/10 02:28:43;;;;;;;1.38;0.50;;;23.10;50.10;;;;;;5044011;28;20374;-66
2023/08/10 02:31:09;;;;;;;1.00;0.52;;;23.10;50.10;;;;;;5057333;28;20119;-68
2023/08/10 02:33:34;;;;;;;1.55;0.85;;;23.10;50.70;;;;;;5074640;28;20142;-69
2023/08/10 02:36:00;;;;;;;0.90;0.65;;;23.10;50.10;;;;;;5064014;28;20132;-68
2023/08/10 02:38:26;;;;;;;1.08;0.60;;;23.10;50.10;;;;;;5046832;28;20081;-68
2023/08/10 02:40:52;;;;;;;1.35;0.40;;;23.10;50.10;;;;;;5064263;28;20123;-68
2023/08/10 02:43:18;;;;;;;1.08;0.70;;;23.10;50.20;;;;;;5060231;28;20072;-68
2023/08/10 02:45:44;;;;;;;1.45;0.60;;;23.10;50.10;;;;;;5058832;28;20111;-68
2023/08/10 02:48:10;;;;;;;1.02;0.70;;;23.00;50.10;;;;;;5062195;28;20112;-65
2023/08/10 02:50:36;;;;;;;1.98;0.60;;;23.10;50.20;;;;;;5070189;28;20423;-69
2023/08/10 02:53:02;;;;;;;1.92;0.70;;;23.10;50.20;;;;;;5045539;28;20031;-68
2023/08/10 02:55:28;;;;;;;2.58;0.47;;;23.10;50.20;;;;;;5073500;28;20021;-68
2023/08/10 02:57:54;;;;;;;1.00;0.63;;;23.10;50.20;;;;;;5064208;28;20099;-67
2023/08/10 03:00:20;;;;;;;1.05;0.60;;;23.10;50.30;;;;;;5042111;28;20117;-69
2023/08/10 03:02:50;;;;;;;1.00;0.60;;;23.00;50.20;;;;;;5066088;28;20051;-67
2023/08/10 03:05:20;;;;;;;1.58;0.80;;;23.10;50.30;;;;;;5075011;28;20027;-67
2023/08/10 03:07:46;;;;;;;1.45;0.70;;;23.00;50.30;;;;;;5048223;28;20086;-67
2023/08/10 03:10:13;;;;;;;1.48;0.63;;;23.00;50.30;;;;;;5045606;28;20032;-68
2023/08/10 03:12:39;;;;;;;1.42;0.70;;;23.00;50.30;;;;;;5054686;28;20062;-68
2023/08/10 03:15:09;;;;;;;1.55;0.80;;;23.00;50.20;;;;;;5044907;28;20039;-67
2023/08/10 03:17:36;;;;;;;2.28;0.73;;;23.00;50.20;;;;;;5042879;28;20052;-68
2023/08/10 03:20:11;;;;;;;1.75;0.82;;;23.00;50.20;;;;;;5044999;28;20408;-67
2023/08/10 03:22:38;;;;;;;1.27;0.60;;;23.00;50.20;;;;;;5078183;28;20055;-66
2023/08/10 03:25:06;;;;;;;0.93;0.70;;;23.00;50.20;;;;;;5039812;28;20401;-67
2023/08/10 03:27:32;;;;;;;1.58;0.90;;;23.00;50.30;;;;;;5044495;28;20017;-66
2023/08/10 03:29:58;;;;;;;1.05;0.40;;;23.00;50.20;;;;;;5049485;28;20036;-68
2023/08/10 03:32:24;;;;;;;0.98;0.50;;;23.00;50.30;;;;;;5067174;28;20173;-68
2023/08/10 03:34:50;;;;;;;1.33;0.60;;;23.00;50.30;;;;;;5067202;28;20422;-67
2023/08/10 03:37:16;;;;;;;1.52;0.47;;;23.00;50.30;;;;;;5055899;28;20060;-67
2023/08/10 03:39:42;;;;;;;2.03;0.60;;;23.00;50.30;;;;;;5039317;28;20056;-67
2023/08/10 03:42:08;;;;;;;0.82;0.43;;;23.00;50.30;;;;;;5071133;28;20039;-68
2023/08/10 03:44:33;;;;;;;1.45;0.60;;;23.00;50.30;;;;;;5043404;28;20039;-68
2023/08/10 03:46:59;;;;;;;1.27;0.63;;;23.00;50.30;;;;;;5068077;28;20044;-66
2023/08/10 03:49:25;;;;;;;1.35;0.60;;;22.90;50.20;;;;;;5068603;28;20134;-68
2023/08/10 03:51:51;;;;;;;0.82;0.60;;;23.00;50.30;;;;;;5051109;28;20033;-69
2023/08/10 03:54:17;;;;;;;1.48;0.70;;;23.00;50.30;;;;;;5072015;28;20112;-67
2023/08/10 03:56:43;;;;;;;1.83;0.60;;;22.90;50.30;;;;;;5067742;28;20396;-69
2023/08/10 03:59:10;;;;;;;1.23;0.80;;;22.90;50.30;;;;;;5073934;28;20024;-69
2023/08/10 04:01:37;;;;;;;1.45;0.80;;;22.90;50.30;;;;;;5055654;28;20097;-65
2023/08/10 04:04:03;;;;;;;1.20;0.80;;;22.90;50.30;;;;;;5049861;28;20470;-68
2023/08/10 04:06:29;;;;;;;0.88;0.57;;;22.90;50.30;;;;;;5069070;28;20033;-66
2023/08/10 04:08:55;;;;;;;1.33;0.68;;;23.00;50.40;;;;;;5068539;28;20413;-68
2023/08/10 04:11:21;;;;;;;0.93;0.65;;;22.90;50.30;;;;;;5054769;28;20039;-68
2023/08/10 04:13:47;;;;;;;1.90;0.90;;;22.90;50.30;;;;;;5072226;28;20437;-67
2023/08/10 04:16:14;;;;;;;1.25;0.52;;;22.90;50.40;;;;;;5072069;28;20300;-68
2023/08/10 04:18:40;;;;;;;1.60;0.80;;;22.90;50.40;;;;;;5072164;28;20426;-67
2023/08/10 04:21:06;;;;;;;0.95;0.60;;;22.90;50.40;;;;;;5062103;28;20086;-68
2023/08/10 04:23:32;;;;;;;1.05;0.60;;;22.90;50.40;;;;;;5053235;28;20044;-69
2023/08/10 04:25:58;;;;;;;0.98;0.70;;;22.90;50.40;;;;;;5061583;28;20351;-67
2023/08/10 04:28:24;;;;;;;1.58;0.70;;;22.90;50.50;;;;;;5066804;28;20040;-67
2023/08/10 04:30:50;;;;;;;1.67;0.60;;;22.90;50.50;;;;;;5046176;28;20375;-70
2023/08/10 04:33:16;;;;;;;1.40;0.60;;;22.90;50.50;;;;;;5076387;28;20359;-67
2023/08/10 04:35:42;;;;;;;1.10;0.70;;;22.90;50.50;;;;;;5065485;28;20146;-69
2023/08/10 04:38:10;;;;;;;0.98;0.68;;;22.90;50.50;;;;;;5043207;28;20119;-68
2023/08/10 04:40:36;;;;;;;1.00;0.60;;;22.90;50.60;;;;;;5065862;28;20029;-69
2023/08/10 04:43:02;;;;;;;1.15;0.60;;;22.90;50.60;;;;;;5073329;28;20128;-68
2023/08/10 04:45:27;;;;;;;1.02;0.50;;;22.90;50.60;;;;;;5061101;28;20152;-68
2023/08/10 04:47:54;;;;;;;1.23;0.63;;;22.90;50.60;;;;;;5064161;28;20108;-68
2023/08/10 04:50:20;;;;;;;1.15;0.68;;;22.90;50.60;;;;;;5060625;28;20111;-68
2023/08/10 04:52:46;;;;;;;1.27;0.68;;;22.90;50.60;;;;;;5070101;28;20215;-69
2023/08/10 04:55:12;;;;;;;1.27;0.70;;;22.90;50.70;;;;;;5059974;28;20116;-67
2023/08/10 04:57:38;;;;;;;1.73;0.82;;;22.90;50.70;;;;;;5066055;28;20095;-68
2023/08/10 05:00:09;;;;;;;1.92;0.70;;;22.90;50.70;;;;;;5064150;28;20039;-64
2023/08/10 05:02:36;;;;;;;2.20;0.75;;;22.90;50.70;;;;;;5057970;28;20032;-69
2023/08/10 05:05:04;;;;;;;1.15;0.82;;;22.90;50.70;;;;;;5046290;28;20111;-66
2023/08/10 05:07:31;;;;;;;1.42;0.80;;;22.90;50.70;;;;;;5061228;28;20376;-66
2023/08/10 05:09:57;;;;;;;1.20;0.60;;;22.90;50.70;;;;;;5068040;28;20029;-68
2023/08/10 05:12:23;;;;;;;1.08;0.60;;;22.90;50.80;;;;;;5062224;28;20056;-68
2023/08/10 05:14:49;;;;;;;1.30;0.75;;;22.90;50.80;;;;;;5067783;28;20032;-67
2023/08/10 05:17:15;;;;;;;1.05;0.70;;;22.90;50.80;;;;;;5061585;28;20016;-68
2023/08/10 05:19:41;;;;;;;1.02;0.65;;;22.90;50.80;;;;;;5061589;28;20090;-67
2023/08/10 05:22:07;;;;;;;1.73;0.70;;;22.90;50.80;;;;;;5065746;28;20797;-67
2023/08/10 05:24:33;;;;;;;1.50;0.60;;;22.90;50.80;;;;;;5061026;28;20031;-69
2023/08/10 05:27:01;;;;;;;1.52;0.65;;;22.90;50.80;;;;;;5065734;28;20052;-67
2023/08/10 05:29:26;;;;;;;1.70;0.77;;;22.90;50.80;;;;;;5043096;28;20029;-66
2023/08/10 05:31:52;;;;;;;1.45;0.63;;;22.90;50.80;;;;;;5067346;28;20031;-69
2023/08/10 05:34:19;;;;;;;1.40;0.63;;;22.90;50.70;;;;;;5052433;28;20182;-67
2023/08/10 05:36:44;;;;;;;1.80;0.80;;;23.00;50.80;;;;;;5072076;28;20040;-68
2023/08/10 05:39:10;;;;;;;0.70;0.55;;;23.00;50.70;;;;;;5065708;28;20017;-67
2023/08/10 05:41:36;;;;;;;1.45;0.60;;;23.00;50.70;;;;;;5062988;28;20432;-67
2023/08/10 05:44:02;;;;;;;1.25;0.73;;;23.00;50.70;;;;;;5059959;28;20040;-67
2023/08/10 05:46:28;;;;;;;2.30;1.00;;;23.00;50.60;;;;;;5064459;28;20076;-67
2023/08/10 05:48:54;;;;;;;1.88;0.70;;;23.00;50.60;;;;;;5065373;28;20073;-68
2023/08/10 05:51:20;;;;;;;1.67;0.60;;;23.00;50.60;;;;;;5051762;28;20454;-67
2023/08/10 05:53:46;;;;;;;1.52;0.80;;;23.00;50.60;;;;;;5075733;28;20056;-68
2023/08/10 05:56:12;;;;;;;1.40;0.60;;;23.00;50.60;;;;;;5074196;28;20054;-68
2023/08/10 05:58:38;;;;;;;1.58;0.82;;;23.00;50.50;;;;;;5062802;28;20051;-67
2023/08/10 06:01:04;;;;;;;0.75;0.52;;;23.00;50.50;;;;;;5071580;28;20025;-66
2023/08/10 06:03:29;;;;;;;1.02;0.55;;;23.00;50.50;;;;;;5061790;28;20024;-65
2023/08/10 06:05:55;;;;;;;1.35;0.68;;;23.00;50.50;;;;;;5051393;28;20329;-68
2023/08/10 06:08:22;;;;;;;1.55;0.65;;;23.00;50.50;;;;;;5051331;28;20039;-68
2023/08/10 06:10:51;;;;;;;1.85;0.82;;;23.00;50.50;;;;;;5033741;28;20368;-67
2023/08/10 06:13:20;;;;;;;1.63;0.88;;;23.00;50.50;;;;;;5033559;28;20532;-69
2023/08/10 06:15:49;;;;;;;1.88;0.80;;;23.10;50.50;;;;;;5051448;28;20081;-65
2023/08/10 06:18:15;;;;;;;1.52;0.95;;;23.10;50.40;;;;;;5052366;28;20219;-66
2023/08/10 06:20:40;;;;;;;1.02;0.80;;;23.10;50.40;;;;;;5044978;28;20144;-67
2023/08/10 06:23:06;;;;;;;1.77;0.82;;;23.10;50.30;;;;;;5049530;28;20416;-67
2023/08/10 06:25:33;;;;;;;1.65;0.70;;;23.10;50.30;;;;;;5060442;28;20052;-66
2023/08/10 06:27:59;;;;;;;1.63;0.70;;;23.10;50.30;;;;;;5066342;28;21017;-68
2023/08/10 06:30:25;;;;;;;1.05;0.63;;;23.10;50.20;;;;;;5063699;28;21561;-67
2023/08/10 06:32:51;;;;;;;0.52;0.50;;;23.10;50.20;;;;;;5069908;28;20115;-66
2023/08/10 06:35:21;;;;;;;1.20;0.60;;;23.10;50.20;;;;;;5067213;28;20100;-66
2023/08/10 06:37:50;;;;;;;1.52;0.90;;;23.10;50.20;;;;;;5072082;28;20118;-67
2023/08/10 06:40:16;;;;;;;0.82;0.60;;;23.10;50.20;;;;;;5075478;28;20039;-67
2023/08/10 06:42:42;;;;;;;1.00;0.60;;;23.10;50.10;;;;;;5073716;28;20021;-66
2023/08/10 06:45:14;;;;;;;1.65;0.60;;;23.10;50.10;;;;;;5081948;28;20060;-66
2023/08/10 06:47:40;;;;;;;1.67;0.77;;;23.20;50.20;;;;;;5068333;28;20095;-66
2023/08/10 06:50:08;;;;;;;0.70;0.55;;;23.10;50.10;;;;;;5069242;28;20052;-67
2023/08/10 06:52:35;;;;;;;1.42;0.60;;;23.10;50.10;;;;;;5057741;28;20389;-66
2023/08/10 06:55:01;;;;;;;1.35;0.75;;;23.10;50.10;;;;;;5054765;28;20047;-67
2023/08/10 06:57:26;;;;;;;1.35;0.93;;;23.20;50.10;;;;;;5053555;28;20447;-66
2023/08/10 06:59:52;;;;;;;2.38;0.80;;;23.20;50.10;;;;;;5050983;28;20043;-67
2023/08/10 07:02:18;;;;;;;1.67;0.70;;;23.20;50.10;;;;;;5073866;28;20028;-68
2023/08/10 07:04:45;;;;;;;1.17;0.70;;;23.20;50.10;;;;;;5073769;28;20408;-67
2023/08/10 07:07:12;;;;;;;1.48;0.70;;;23.20;50.00;;;;;;5073214;28;20043;-67
2023/08/10 07:09:38;;;;;;;0.95;0.60;;;23.20;50.00;;;;;;5073457;28;20036;-70
2023/08/10 07:12:04;;;;;;;1.65;0.90;;;23.20;49.90;;;;;;5056998;28;20028;-69
2023/08/10 07:14:30;;;;;;;1.50;0.57;;;23.20;49.80;;;;;;5081324;28;20032;-68
2023/08/10 07:16:57;;;;;;;1.27;0.57;;;23.20;49.80;;;;;;5071751;28;20036;-67
2023/08/10 07:19:23;;;;;;;0.65;0.50;;;23.20;49.70;;;;;;5072349;28;20024;-68
2023/08/10 07:21:49;;;;;;;1.95;0.70;;;23.20;49.70;;;;;;5074575;28;20061;-68
2023/08/10 07:24:15;;;;;;;0.65;0.60;;;23.20;49.60;;;;;;5074379;28;20408;-69
2023/08/10 07:26:42;;;;;;;1.27;0.60;;;23.20;49.50;;;;;;5057115;28;20032;-67
2023/08/10 07:29:08;;;;;;;1.02;0.60;;;23.20;49.50;;;;;;5075631;28;20055;-69
2023/08/10 07:31:34;;;;;;;0.98;0.55;;;23.20;49.40;;;;;;5094695;28;20067;-68
2023/08/10 07:34:00;;;;;;;0.52;0.50;;;23.20;49.30;;;;;;5039259;28;20105;-70
2023/08/10 07:36:27;;;;;;;2.38;0.73;;;23.30;49.30;;;;;;5056848;28;20104;-70
2023/08/10 07:38:56;;;;;;;1.23;0.60;;;23.20;49.10;;;;;;5075058;28;20108;-70
2023/08/10 07:41:23;;;;;;;1.52;0.50;;;23.30;49.00;;;;;;5074606;28;20035;-70
2023/08/10 07:43:50;;;;;;;0.93;0.50;;;23.20;48.80;;;;;;5056006;28;20062;-68
2023/08/10 07:46:16;;;;;;;1.15;0.50;;;23.30;48.70;;;;;;5076147;28;20058;-67
2023/08/10 07:48:42;;;;;;;0.75;0.40;;;23.30;48.40;;;;;;5056134;28;20032;-67
2023/08/10 07:51:08;;;;;;;1.98;0.85;;;23.30;48.10;;;;;;5039613;28;20066;-68
2023/08/10 07:53:34;;;;;;;0.98;0.70;;;23.30;47.90;;;;;;5074022;28;20468;-68
2023/08/10 07:56:02;;;;;;;0.47;0.40;;;23.30;48.30;;;;;;5074895;28;20036;-71
2023/08/10 07:58:28;;;;;;;0.93;0.50;;;23.30;48.10;;;;;;5074837;28;20028;-70
2023/08/10 08:00:54;;;;;;;1.00;0.55;;;23.30;47.50;;;;;;5074391;28;20467;-70
2023/08/10 08:03:22;;;;;;;0.77;0.38;;;23.30;47.30;;;;;;5074633;28;20119;-69
2023/08/10 08:05:48;;;;;;;0.63;0.40;;;23.30;47.10;;;;;;5056138;28;20457;-69
2023/08/10 08:08:14;;;;;;;1.75;0.60;;;23.30;46.90;;;;;;5069803;28;20025;-69
2023/08/10 08:10:44;;;;;;;2.15;0.60;;;23.30;46.80;;;;;;5037970;28;20216;-68
2023/08/10 08:13:11;;;;;;;1.08;0.40;;;23.30;46.90;;;;;;5045393;28;20451;-70
2023/08/10 08:15:38;;;;;;;2.00;0.55;;;23.30;47.10;;;;;;5069373;28;20029;-70
2023/08/10 08:18:42;;;;;;;1.30;0.60;;;23.30;47.20;;;;;;5039699;28;20173;-69
2023/08/10 08:21:11;;;;;;;;;;;23.40;47.40;;;;;;5074784;28;20032;-69
2023/08/10 08:23:37;;;;;;;1.33;0.60;;;23.50;47.30;;;;;;5056852;28;20029;-73
2023/08/10 08:26:07;;;;;;;0.90;0.50;;;23.60;47.20;;;;;;5039703;28;20435;-72
2023/08/10 08:28:35;;;;;;;1.23;0.50;;;23.70;47.10;;;;;;5071020;28;20044;-71
2023/08/10 08:31:02;;;;;;;1.08;0.50;;;23.80;47.00;;;;;;5056337;28;20235;-68
2023/08/10 08:33:30;;;;;;;1.00;0.60;;;23.90;46.90;;;;;;5062488;28;20032;-69
2023/08/10 08:35:56;;;;;;;1.50;0.50;;;24.00;46.80;;;;;;5073670;28;20024;-67
2023/08/10 08:38:23;;;;;;;1.13;0.50;;;24.10;46.70;;;;;;5078695;28;20024;-68
2023/08/10 08:40:49;;;;;;;0.82;0.50;;;24.10;46.50;;;;;;5063347;28;20047;-72
2023/08/10 08:43:17;;;;;;;1.13;0.60;;;24.20;46.20;;;;;;5067371;28;20021;-67
2023/08/10 08:45:43;;;;;;;0.75;0.50;;;24.30;45.90;;;;;;5067050;28;20094;-67
2023/08/10 08:48:10;;;;;;;1.05;0.50;;;24.30;45.60;;;;;;5071918;28;20031;-67
2023/08/10 08:50:36;;;;;;;1.15;0.40;;;24.30;45.30;;;;;;5075644;28;20115;-67
2023/08/10 08:53:07;;;;;;;1.83;0.50;;;24.30;45.00;;;;;;5068410;28;20040;-66
2023/08/10 08:55:34;;;;;;;1.15;0.65;;;24.40;44.90;;;;;;5057587;28;20046;-67
2023/08/10 08:58:00;;;;;;;1.05;0.43;;;24.30;44.70;;;;;;5081732;28;20036;-64
2023/08/10 09:00:26;;;;;;;1.08;0.50;;;24.30;44.60;;;;;;5083609;28;20031;-67
2023/08/10 09:02:53;;;;;;;0.60;0.50;;;24.30;44.60;;;;;;5085740;28;20024;-65
2023/08/10 09:05:19;;;;;;;1.52;0.60;;;24.30;44.40;;;;;;5084584;28;20328;-69
2023/08/10 09:07:45;;;;;;;0.55;0.47;;;24.30;44.30;;;;;;5081374;28;20035;-67
2023/08/10 09:10:11;;;;;;;0.65;0.40;;;24.30;44.30;;;;;;5084761;28;20036;-68
2023/08/10 09:12:39;;;;;;;1.00;0.40;;;24.30;44.20;;;;;;5083324;28;20054;-67
2023/08/10 09:15:12;;;;;;;0.85;0.47;;;24.20;44.00;;;;;;5084757;28;20024;-67
2023/08/10 09:17:49;;;;;;;2.87;0.70;;;24.30;44.00;;;;;;5079801;28;20043;-66
2023/08/10 09:20:26;;;;;;;1.30;0.43;;;24.20;43.90;;;;;;5085174;28;20347;-65
2023/08/10 09:22:54;;;;;;;0.90;0.40;;;24.20;43.80;;;;;;5083021;28;20039;-67
2023/08/10 09:25:21;;;;;;;1.27;0.50;;;24.20;43.70;;;;;;5086091;28;20056;-67
2023/08/10 09:27:48;;;;;;;0.77;0.47;;;24.20;43.60;;;;;;5082708;28;20098;-70
2023/08/10 09:30:15;;;;;;;1.20;0.45;;;24.20;43.50;;;;;;5084049;28;20024;-66
2023/08/10 09:32:42;;;;;;;0.70;0.50;;;24.20;43.40;;;;;;5063399;28;20101;-67
2023/08/10 09:35:18;;;;;;;0.57;0.40;;;24.20;43.40;;;;;;5078247;28;20089;-69
2023/08/10 09:37:46;;;;;;;1.00;0.47;;;24.20;43.30;;;;;;5085137;28;20036;-69
2023/08/10 09:40:15;;;;;;;0.93;0.40;;;24.20;43.30;;;;;;5085254;28;20020;-68
2023/08/10 09:42:41;;;;;;;0.98;0.40;;;24.10;43.20;;;;;;5083431;28;20434;-67
2023/08/10 09:45:09;;;;;;;0.90;0.35;;;24.10;43.20;;;;;;5083583;28;20052;-65
2023/08/10 09:47:38;;;;;;;1.58;0.57;;;24.10;43.20;;;;;;5083817;28;20040;-67
2023/08/10 09:50:07;;;;;;;1.13;0.50;;;24.10;43.10;;;;;;5065574;28;20086;-68
2023/08/10 09:52:36;;;;;;;0.88;0.50;;;24.10;43.10;;;;;;5087162;28;20028;-66
2023/08/10 09:55:03;;;;;;;1.15;0.40;;;24.10;43.20;;;;;;5082242;28;20103;-69
2023/08/10 09:57:29;;;;;;;1.00;0.50;;;24.10;43.20;;;;;;5084783;28;20166;-66
2023/08/10 09:59:55;;;;;;;1.23;0.60;;;24.10;43.20;;;;;;5083709;28;20111;-65
2023/08/10 10:02:22;;;;;;;1.05;0.50;;;24.10;43.30;;;;;;5083314;28;20029;-69
2023/08/10 10:04:49;;;;;;;0.95;0.47;;;24.10;43.40;;;;;;5081022;28;20155;-66
2023/08/10 10:07:23;;;;;;;2.33;0.50;;;24.10;43.40;;;;;;5077827;28;20048;-66
2023/08/10 10:09:50;;;;;;;0.68;0.40;;;24.10;43.50;;;;;;5067297;28;20438;-67
2023/08/10 10:12:16;;;;;;;0.70;0.40;;;24.00;43.50;;;;;;5084503;28;20041;-68
2023/08/10 10:14:47;;;;;;;1.02;0.60;;;24.10;43.50;;;;;;5084478;28;20441;-65
2023/08/10 10:17:16;;;;;;;1.10;0.57;;;24.10;43.60;;;;;;5078880;28;20284;-66
2023/08/10 10:19:44;;;;;;;1.30;0.65;;;24.10;43.60;;;;;;5065158;28;20051;-65
2023/08/10 10:22:10;;;;;;;0.52;0.40;;;24.10;43.70;;;;;;5085186;28;20315;-69
2023/08/10 10:24:43;;;;;;;0.93;0.52;;;24.10;43.70;;;;;;5083783;28;20032;-66
2023/08/10 10:27:11;;;;;;;1.65;0.70;;;24.10;43.70;;;;;;5070198;28;20028;-67
2023/08/10 10:29:56;;;;;;;0.70;0.60;;;24.10;43.80;;;;;;5071861;28;20525;-67
2023/08/10 10:32:23;;;;;;;0.95;0.52;;;24.10;43.80;;;;;;5081896;28;20047;-67
2023/08/10 10:34:51;;;;;;;0.90;0.60;;;24.00;43.90;;;;;;5081071;28;20490;-68
2023/08/10 10:37:35;;;;;;;1.08;0.60;;;24.10;44.00;;;;;;5059717;28;20108;-67
2023/08/10 10:40:15;;;;;;;0.40;0.40;;;24.00;44.00;;;;;;5077212;28;20016;-65
2023/08/10 10:43:02;;;;;;;1.55;0.60;;;24.10;44.20;;;;;;5074283;28;20046;-65
2023/08/10 10:45:39;;;;;;;1.13;0.47;;;24.00;44.20;;;;;;5065432;28;20028;-69
2023/08/10 10:48:06;;;;;;;1.25;0.70;;;24.10;44.40;;;;;;5069122;28;20439;-65
2023/08/10 10:50:33;;;;;;;1.77;0.60;;;24.00;44.40;;;;;;5064105;28;20133;-67
2023/08/10 10:53:13;;;;;;;0.82;0.60;;;24.10;44.60;;;;;;5069500;28;20395;-68
2023/08/10 10:55:44;;;;;;;0.73;0.65;;;24.10;44.70;;;;;;5066100;28;20090;-66
2023/08/10 10:58:11;;;;;;;0.82;0.50;;;24.10;44.70;;;;;;5040951;28;20358;-65
2023/08/10 11:00:38;;;;;;;0.60;0.50;;;24.10;44.80;;;;;;5066969;28;20185;-67
2023/08/10 11:03:05;;;;;;;0.95;0.50;;;24.10;44.80;;;;;;5024175;28;20036;-68
2023/08/10 11:05:32;;;;;;;1.08;0.60;;;24.10;44.90;;;;;;5046673;28;20096;-68
2023/08/10 11:08:07;;;;;;;1.10;0.65;;;24.10;44.90;;;;;;5061329;28;20405;-67
2023/08/10 11:10:36;;;;;;;2.45;0.70;;;24.10;45.00;;;;;;5066547;28;20103;-66
2023/08/10 11:13:06;;;;;;;0.80;0.60;;;24.10;44.90;;;;;;5068649;28;20175;-68
2023/08/10 11:15:33;;;;;;;0.55;0.50;;;24.10;44.90;;;;;;5055776;28;20043;-67
2023/08/10 11:17:59;;;;;;;0.70;0.52;;;24.10;44.90;;;;;;5065077;28;20435;-65
2023/08/10 11:20:25;;;;;;;0.50;0.40;;;24.10;44.90;;;;;;5065751;28;20347;-67
2023/08/10 11:22:52;;;;;;;0.73;0.50;;;24.10;44.80;;;;;;5064819;28;20035;-70
2023/08/10 11:25:20;;;;;;;1.70;0.57;;;24.10;44.80;;;;;;5049951;28;20029;-66
2023/08/10 11:27:48;;;;;;;1.13;0.50;;;24.10;44.70;;;;;;5063980;28;20059;-66
2023/08/10 11:30:16;;;;;;;0.90;0.60;;;24.10;44.70;;;;;;5067725;28;20313;-68
2023/08/10 11:32:44;;;;;;;1.00;0.70;;;24.10;44.70;;;;;;5061571;28;20055;-65
2023/08/10 11:35:12;;;;;;;1.40;0.70;;;24.10;44.70;;;;;;5068476;28;20036;-68
2023/08/10 11:37:40;;;;;;;1.02;0.60;;;24.10;44.60;;;;;;5048398;28;20115;-64
2023/08/10 11:40:07;;;;;;;0.80;0.55;;;24.10;44.70;;;;;;5065050;28;20052;-64
2023/08/10 11:42:41;;;;;;;0.50;0.40;;;24.10;44.60;;;;;;5063029;28;20105;-67
2023/08/10 11:45:11;;;;;;;1.15;0.70;;;24.10;44.70;;;;;;5065980;28;20024;-64
2023/08/10 11:47:45;;;;;;;1.60;0.50;;;24.10;44.70;;;;;;5065583;28;20135;-66
2023/08/10 11:50:13;;;;;;;;;;;24.20;45.00;;;;;;5062874;28;20028;-65
2023/08/10 11:52:40;;;;;;;1.27;0.60;;;24.20;45.20;;;;;;5066069;28;19920;-64
2023/08/10 11:55:10;;;;;;;1.00;0.70;;;24.20;45.50;;;;;;5064850;28;20028;-67
2023/08/10 11:57:37;;;;;;;0.93;0.60;;;24.20;45.80;;;;;;5063195;28;20029;-67
2023/08/10 12:00:33;;;;;;;0.95;0.60;;;24.30;46.00;;;;;;5048839;28;20540;-67
2023/08/10 12:03:01;;;;;;;0.80;0.63;;;24.30;46.00;;;;;;5047031;28;20028;-64
2023/08/10 12:05:43;;;;;;;3.40;0.77;;;24.30;46.70;;;;;;5061515;28;20135;-66
2023/08/10 12:08:17;;;;;;;1.67;0.98;;;24.30;46.20;;;;;;5041558;28;20029;-65
2023/08/10 12:10:51;;;;;;;1.15;0.88;;;24.40;46.20;;;;;;5070144;28;20035;-64
2023/08/10 12:13:19;;;;;;;;;;;24.30;46.20;;;;;;5062207;28;20420;-66
2023/08/10 12:15:46;;;;;;;1.17;0.85;;;24.40;46.30;;;;;;5062735;28;20054;-64
2023/08/10 12:18:16;;;;;;;1.35;0.70;;;24.40;46.30;;;;;;5066911;28;20020;-62
2023/08/10 12:20:43;;;;;;;1.27;0.80;;;24.40;46.30;;;;;;5059305;28;21602;-64
2023/08/10 12:23:10;;;;;;;1.48;0.98;;;24.40;46.30;;;;;;5063159;28;20065;-64
2023/08/10 12:25:36;;;;;;;1.10;0.70;;;24.40;46.20;;;;;;5063969;28;20179;-64
2023/08/10 12:28:02;;;;;;;1.48;0.95;;;24.50;46.20;;;;;;5031906;28;20105;-65
2023/08/10 12:30:29;;;;;;;2.25;0.80;;;24.40;46.10;;;;;;5064561;28;20052;-66
2023/08/10 12:32:55;;;;;;;1.02;0.65;;;24.40;46.00;;;;;;5069410;28;20076;-65
2023/08/10 12:35:21;;;;;;;1.33;0.77;;;24.50;46.00;;;;;;5046259;28;20270;-64
2023/08/10 12:37:50;;;;;;;1.17;0.88;;;24.50;45.90;;;;;;5068471;28;20104;-66
2023/08/10 12:40:16;;;;;;;2.38;0.98;;;24.60;46.00;;;;;;5047588;28;20020;-64
2023/08/10 12:42:44;;;;;;;2.50;0.90;;;24.50;45.90;;;;;;5050257;28;20131;-64
2023/08/10 12:45:11;;;;;;;0.73;0.50;;;24.60;45.90;;;;;;5066817;28;20032;-68
2023/08/10 12:47:38;;;;;;;1.30;0.80;;;24.60;45.80;;;;;;5047635;28;20036;-64
2023/08/10 12:50:05;;;;;;;0.82;0.60;;;24.60;46.40;;;;;;5063262;28;20043;-66